Terminal Aerodrome Forecast
Issued by NWS

Home | Current Version | Previous Version | Text Only | Print | Product List | Glossary On
Versions: 1 2 3 4 5 6 7 8 9 10 11 12 13 14 15 16 17 18
000
FTUS45 KTFX 161700
TAFLWT
TAF
KLWT 161730Z 1618/1718 VRB05KT P6SM BKN015 OVC045
     FM162000 VRB06KT P6SM SCT015 BKN045
     FM170300 14006KT P6SM OVC010
      TEMPO 1704/1708 1SM -SN BR OVC005
     FM171300 15006KT P6SM SCT015 BKN045=

USA.gov is the U.S. government's official web portal to all federal, state and local government web resources and services.